Time;durP1;ratioP1;P1;durP2;ratioP2;P2;SDS_P1;SDS_P2;PMS_P1;PMS_P2;Temp;Humidity;BMP_temperature;BMP_pressure;BME280_temperature;BME280_humidity;BME280_pressure;Samples;Min_cycle;Max_cycle;Signal;HPM_P1;HPM_P2
2021/06/10 00:06:10;;;;;;;13.93;8.63;;;12.00;99.90;;;;;;20990106;28;20395;-73
2021/06/10 00:16:11;;;;;;;14.83;8.03;;;12.10;99.90;;;;;;20972257;28;20036;-73
2021/06/10 00:26:12;;;;;;;11.27;7.77;;;12.10;99.90;;;;;;20971868;28;20044;-74
2021/06/10 00:36:13;;;;;;;23.30;8.97;;;12.00;99.90;;;;;;21005699;28;20036;-74
2021/06/10 00:46:15;;;;;;;15.30;9.80;;;11.80;99.90;;;;;;21005334;28;20044;-73
2021/06/10 00:56:15;;;;;;;;;;;11.50;99.90;;;;;;21004982;28;20518;-74
2021/06/10 01:06:30;;;;;;;16.27;9.17;;;11.60;99.90;;;;;;21003599;28;19986;-74
2021/06/10 01:16:34;;;;;;;10.77;7.57;;;11.50;99.90;;;;;;21003120;28;20642;-74
2021/06/10 01:26:44;;;;;;;13.60;7.95;;;11.50;99.90;;;;;;21002205;28;20036;-73
2021/06/10 01:36:47;;;;;;;13.57;8.50;;;11.40;99.90;;;;;;21001413;28;20078;-73
2021/06/10 01:46:50;;;;;;;14.82;9.75;;;11.30;99.90;;;;;;21000054;28;20503;-74
2021/06/10 01:56:51;;;;;;;14.73;9.98;;;11.20;99.90;;;;;;20999692;28;20062;-73
2021/06/10 02:06:55;;;;;;;14.33;8.60;;;11.20;99.90;;;;;;20999048;28;20033;-74
2021/06/10 02:16:57;;;;;;;11.70;7.57;;;11.00;99.90;;;;;;20981443;28;20507;-74
2021/06/10 02:26:58;;;;;;;13.07;8.02;;;11.00;99.90;;;;;;20979769;28;20044;-74
2021/06/10 02:37:00;;;;;;;11.53;7.73;;;10.90;99.90;;;;;;20978825;28;20036;-74
2021/06/10 02:47:05;;;;;;;10.38;7.65;;;10.90;99.90;;;;;;20995520;28;20398;-73
2021/06/10 02:57:07;;;;;;;12.43;7.38;;;10.70;99.90;;;;;;21007567;22;20052;-77
2021/06/10 03:07:12;;;;;;;13.10;6.68;;;10.80;99.90;;;;;;20994006;28;20040;-76
2021/06/10 03:17:17;;;;;;;11.30;7.05;;;10.90;99.90;;;;;;20975340;28;20123;-76
2021/06/10 03:27:19;;;;;;;49.10;10.40;;;10.90;99.90;;;;;;20974953;28;20049;-77
2021/06/10 03:37:21;;;;;;;16.65;10.70;;;10.90;99.90;;;;;;20991798;28;20044;-76
2021/06/10 03:47:22;;;;;;;;;;;11.40;99.90;;;;;;20991315;28;20047;-76
2021/06/10 03:57:23;;;;;;;233.23;19.05;;;11.70;99.90;;;;;;20972949;28;20323;-76
2021/06/10 04:07:24;;;;;;;294.60;24.17;;;11.90;99.90;;;;;;20991899;28;20071;-75
2021/06/10 04:17:24;;;;;;;75.20;17.97;;;12.10;99.90;;;;;;20990939;28;20033;-76
2021/06/10 04:27:25;;;;;;;191.83;22.63;;;12.20;99.90;;;;;;20989879;28;20055;-76
2021/06/10 04:37:26;;;;;;;63.70;19.57;;;12.20;99.90;;;;;;20992836;28;20079;-75
2021/06/10 04:47:27;;;;;;;62.60;23.50;;;12.40;99.90;;;;;;20970972;28;20453;-75
2021/06/10 04:57:28;;;;;;;36.23;18.23;;;12.50;99.90;;;;;;20988498;28;20040;-76
2021/06/10 05:07:29;;;;;;;41.40;19.67;;;12.70;99.90;;;;;;20970191;28;20052;-75
2021/06/10 05:17:30;;;;;;;38.37;20.40;;;12.90;99.90;;;;;;20977082;28;20430;-75
2021/06/10 05:27:33;;;;;;;33.97;18.97;;;13.20;99.90;;;;;;20919269;28;20445;-76
2021/06/10 05:37:34;;;;;;;42.47;19.55;;;13.40;99.90;;;;;;20918826;28;20045;-75
2021/06/10 05:47:35;;;;;;;36.83;21.63;;;13.70;99.90;;;;;;20935808;28;20044;-75
2021/06/10 05:57:37;;;;;;;31.47;17.80;;;13.80;99.90;;;;;;20917204;28;20514;-75
2021/06/10 06:07:38;;;;;;;30.70;17.30;;;14.10;99.90;;;;;;20917621;28;20403;-75
2021/06/10 06:17:39;;;;;;;23.60;15.33;;;14.20;99.90;;;;;;20924584;28;20087;-75
2021/06/10 06:27:40;;;;;;;32.30;17.07;;;14.30;99.90;;;;;;20886552;28;20056;-75
2021/06/10 06:37:41;;;;;;;23.67;15.70;;;14.40;99.90;;;;;;20918365;28;20048;-75
2021/06/10 06:47:42;;;;;;;26.60;16.50;;;15.10;99.90;;;;;;20896026;28;20047;-75
2021/06/10 06:57:43;;;;;;;22.37;15.23;;;15.40;99.90;;;;;;20912254;28;20065;-76
2021/06/10 07:07:44;;;;;;;24.40;15.00;;;15.90;99.90;;;;;;20935212;28;20123;-75
2021/06/10 07:17:45;;;;;;;20.70;12.97;;;17.50;99.90;;;;;;20940976;28;20032;-75
2021/06/10 07:27:46;;;;;;;19.67;13.03;;;17.80;99.90;;;;;;20970922;28;20051;-75
2021/06/10 07:37:51;;;;;;;15.43;11.90;;;17.90;99.90;;;;;;20947298;28;20036;-75
2021/06/10 07:47:52;;;;;;;18.10;12.05;;;18.30;99.90;;;;;;20962026;28;20156;-75
2021/06/10 07:57:55;;;;;;;16.47;11.80;;;18.80;99.90;;;;;;20936512;28;20032;-75
2021/06/10 08:07:56;;;;;;;15.65;10.98;;;19.20;99.90;;;;;;20887952;28;20045;-75
2021/06/10 08:17:58;;;;;;;15.07;10.00;;;19.70;99.90;;;;;;20887472;28;20040;-75
2021/06/10 08:28:02;;;;;;;11.40;9.13;;;20.50;99.90;;;;;;20914110;28;20095;-75
2021/06/10 08:38:06;;;;;;;10.68;7.80;;;21.50;99.90;;;;;;20968922;28;20040;-76
2021/06/10 08:48:07;;;;;;;11.95;7.22;;;22.10;99.90;;;;;;20939698;28;20037;-75
2021/06/10 08:58:08;;;;;;;;;;;22.00;99.90;;;;;;20956340;28;20143;-76
2021/06/10 09:08:09;;;;;;;10.03;5.60;;;22.60;99.90;;;;;;20936982;28;20345;-75
2021/06/10 09:18:10;;;;;;;8.25;6.70;;;24.10;99.90;;;;;;20935949;28;20049;-77
2021/06/10 09:28:11;;;;;;;9.50;7.27;;;23.60;99.90;;;;;;20926070;28;20622;-76
2021/06/10 09:38:17;;;;;;;9.07;7.38;;;23.30;99.90;;;;;;20921226;28;20040;-76
2021/06/10 09:48:30;;;;;;;8.13;6.80;;;23.60;99.90;;;;;;20894264;28;20464;-76
2021/06/10 09:58:38;;;;;;;11.13;7.15;;;23.90;99.90;;;;;;20892281;28;20045;-75
2021/06/10 10:08:39;;;;;;;8.80;6.50;;;25.20;99.90;;;;;;20925721;28;20804;-75
2021/06/10 10:18:43;;;;;;;8.40;6.45;;;26.00;99.90;;;;;;20961834;28;20071;-74
2021/06/10 10:28:44;;;;;;;9.10;6.80;;;26.40;99.90;;;;;;20940090;28;20040;-75
2021/06/10 10:38:54;;;;;;;;;;;25.30;99.90;;;;;;20972735;28;20094;-75
2021/06/10 10:48:59;;;;;;;8.23;6.82;;;26.20;99.90;;;;;;20921230;28;19988;-75
2021/06/10 10:59:38;;;;;;;11.05;6.43;;;24.60;99.90;;;;;;20957584;28;20041;-75
2021/06/10 11:09:42;;;;;;;12.77;6.57;;;23.90;99.90;;;;;;20971032;28;20049;-75
2021/06/10 11:19:57;;;;;;;7.88;5.43;;;23.70;99.90;;;;;;20907448;28;20044;-74
2021/06/10 11:30:09;;;;;;;5.97;3.83;;;22.40;99.90;;;;;;20972027;28;20033;-74
2021/06/10 11:40:11;;;;;;;5.65;4.20;;;21.90;99.90;;;;;;20955829;28;20120;-75
2021/06/10 11:50:24;;;;;;;6.05;5.13;;;21.80;99.90;;;;;;20887738;28;20530;-76
2021/06/10 12:00:31;;;;;;;7.22;5.93;;;23.70;99.90;;;;;;20907465;28;20507;-76
2021/06/10 12:10:31;;;;;;;11.20;6.35;;;25.60;99.90;;;;;;20889895;28;20037;-76
2021/06/10 12:20:35;;;;;;;8.25;5.50;;;24.90;99.90;;;;;;20907056;28;20136;-75
2021/06/10 12:30:39;;;;;;;5.90;5.20;;;26.00;99.90;;;;;;20946589;28;20048;-75
2021/06/10 12:40:43;;;;;;;5.32;4.82;;;26.90;99.90;;;;;;20988241;28;20055;-75
2021/06/10 12:50:44;;;;;;;5.38;4.57;;;26.30;99.90;;;;;;21005103;28;20491;-75
2021/06/10 13:00:45;;;;;;;5.43;4.85;;;26.20;99.90;;;;;;21003127;28;20044;-74
2021/06/10 13:10:47;;;;;;;5.25;4.70;;;25.90;99.90;;;;;;21003003;28;20060;-75
2021/06/10 13:20:56;;;;;;;7.18;5.97;;;25.20;99.90;;;;;;21002410;28;20040;-74
2021/06/10 13:31:22;;;;;;;8.98;7.05;;;23.90;99.90;;;;;;21001679;28;20047;-75
2021/06/10 13:41:26;;;;;;;7.00;4.82;;;23.20;99.90;;;;;;20999682;28;20036;-74
2021/06/10 13:51:26;;;;;;;5.80;4.82;;;22.60;99.90;;;;;;20999995;28;20107;-74
2021/06/10 14:01:27;;;;;;;5.30;4.67;;;21.90;99.90;;;;;;20999314;28;20070;-74
2021/06/10 14:11:29;;;;;;;5.63;3.77;;;21.10;99.90;;;;;;20981283;28;20603;-74
2021/06/10 14:21:30;;;;;;;4.80;4.10;;;20.50;99.90;;;;;;20999806;28;20383;-75
2021/06/10 14:41:51;;;;;;;4.43;3.60;;;21.60;99.90;;;;;;20996673;28;20383;-75
2021/06/10 14:51:52;;;;;;;4.93;4.03;;;22.40;99.90;;;;;;20995022;28;20032;-75
2021/06/10 15:01:53;;;;;;;9.40;5.17;;;23.30;99.90;;;;;;20995266;28;20040;-76
2021/06/10 15:11:54;;;;;;;4.40;3.40;;;23.20;99.90;;;;;;20976607;28;20055;-76
2021/06/10 15:21:55;;;;;;;6.00;4.78;;;23.40;99.90;;;;;;20993166;28;20454;-76
2021/06/10 15:31:56;;;;;;;6.27;3.30;;;23.40;99.90;;;;;;20993452;28;20036;-76
2021/06/10 15:41:57;;;;;;;5.40;3.80;;;23.40;99.90;;;;;;20992085;28;20036;-75
2021/06/10 15:51:58;;;;;;;9.27;3.45;;;24.00;99.90;;;;;;20991592;28;20067;-77
2021/06/10 16:01:59;;;;;;;5.03;3.47;;;24.90;99.90;;;;;;20990836;28;20514;-76
2021/06/10 16:12:00;;;;;;;4.90;3.73;;;24.70;99.90;;;;;;20960158;28;20307;-77
2021/06/10 16:22:02;;;;;;;2.75;2.50;;;25.50;99.90;;;;;;20907111;28;20510;-77
2021/06/10 16:32:04;;;;;;;5.05;2.25;;;24.50;99.90;;;;;;20906045;28;20399;-76
2021/06/10 16:42:05;;;;;;;;;;;24.30;99.90;;;;;;20888364;28;20037;-77
2021/06/10 16:52:09;;;;;;;3.35;2.42;;;24.80;99.90;;;;;;20872033;28;19932;-75
2021/06/10 17:02:12;;;;;;;2.97;2.30;;;24.90;99.90;;;;;;20887491;28;20099;-77
2021/06/10 17:12:13;;;;;;;3.67;2.20;;;24.90;99.90;;;;;;20911607;28;20450;-76
2021/06/10 17:22:14;;;;;;;3.45;2.40;;;24.80;99.90;;;;;;20920088;28;20091;-77
2021/06/10 17:32:15;;;;;;;2.30;2.10;;;24.90;99.90;;;;;;20891451;28;20068;-77
2021/06/10 17:42:16;;;;;;;7.78;2.40;;;24.90;99.90;;;;;;20920709;28;20036;-76
2021/06/10 17:52:19;;;;;;;3.08;2.40;;;24.80;99.90;;;;;;20919124;28;20060;-79
2021/06/10 18:02:20;;;;;;;3.38;2.50;;;24.80;99.90;;;;;;20917457;28;20049;-75
2021/06/10 18:12:21;;;;;;;2.27;2.07;;;24.80;99.90;;;;;;20916479;28;20033;-75
2021/06/10 18:22:22;;;;;;;3.37;2.43;;;25.40;99.90;;;;;;20897015;28;20059;-76
2021/06/10 18:32:23;;;;;;;5.47;2.73;;;25.60;99.90;;;;;;20914896;28;20067;-77
2021/06/10 18:42:24;;;;;;;7.80;3.17;;;24.80;99.90;;;;;;20913500;28;20291;-76
2021/06/10 18:52:25;;;;;;;4.13;3.37;;;22.10;99.90;;;;;;20913048;28;20057;-75
2021/06/10 19:02:26;;;;;;;6.23;3.43;;;20.70;99.90;;;;;;20911921;28;20044;-75
2021/06/10 19:12:27;;;;;;;4.80;3.50;;;20.40;99.90;;;;;;20911551;28;20062;-75
2021/06/10 19:22:28;;;;;;;5.20;3.97;;;20.00;99.90;;;;;;20910850;28;20096;-75
2021/06/10 19:42:36;;;;;;;9.05;5.38;;;19.40;99.90;;;;;;20909214;28;20048;-76
2021/06/10 19:52:37;;;;;;;6.70;5.30;;;19.30;99.90;;;;;;20970069;28;20564;-76
2021/06/10 20:02:40;;;;;;;6.93;5.83;;;19.20;99.90;;;;;;20990315;28;20032;-76
2021/06/10 20:12:41;;;;;;;7.88;6.22;;;18.70;99.90;;;;;;20990474;28;20306;-76
2021/06/10 20:22:42;;;;;;;9.93;6.77;;;18.60;99.90;;;;;;20988349;28;20037;-75
2021/06/10 20:32:44;;;;;;;9.50;6.70;;;18.20;99.90;;;;;;20971880;28;20045;-75
2021/06/10 20:42:45;;;;;;;8.75;6.40;;;18.30;99.90;;;;;;20971395;28;20044;-76
2021/06/10 20:52:47;;;;;;;10.37;7.93;;;17.40;99.90;;;;;;21004217;28;20040;-76
2021/06/10 21:02:48;;;;;;;10.23;7.17;;;17.30;99.90;;;;;;20899698;22;20538;-79
2021/06/10 21:12:49;;;;;;;11.20;7.70;;;17.20;99.90;;;;;;20855230;28;20109;-80
2021/06/10 21:22:50;;;;;;;11.47;7.63;;;16.70;99.90;;;;;;20844953;28;20288;-79
2021/06/10 21:32:51;;;;;;;14.47;8.00;;;16.10;99.90;;;;;;20825924;28;20400;-79
2021/06/10 21:42:52;;;;;;;9.93;7.33;;;16.30;99.90;;;;;;20776070;28;20525;-79
2021/06/10 21:52:53;;;;;;;10.07;6.83;;;16.80;99.90;;;;;;20791596;28;20412;-79
2021/06/10 22:02:55;;;;;;;12.20;6.90;;;16.80;99.90;;;;;;20742320;28;20129;-81
2021/06/10 22:12:56;;;;;;;;;;;16.30;99.90;;;;;;20743286;28;20542;-79
2021/06/10 22:22:58;;;;;;;14.27;8.02;;;15.90;99.90;;;;;;20724483;28;19971;-79
2021/06/10 22:33:04;;;;;;;13.57;7.82;;;15.60;99.90;;;;;;20760164;28;20049;-80
2021/06/10 22:43:06;;;;;;;15.18;8.40;;;15.80;99.90;;;;;;20730440;28;20132;-79
2021/06/10 22:53:07;;;;;;;9.90;7.70;;;15.90;99.90;;;;;;20731049;28;20664;-79
2021/06/10 23:03:08;;;;;;;;;;;15.60;99.90;;;;;;20839353;28;20057;-79
2021/06/10 23:13:09;;;;;;;15.02;8.30;;;15.10;99.90;;;;;;20842475;28;19981;-79
2021/06/10 23:23:10;;;;;;;12.60;8.37;;;15.20;99.90;;;;;;20852844;28;20076;-78
2021/06/10 23:33:11;;;;;;;11.37;7.97;;;15.20;99.90;;;;;;20835876;28;20048;-79
2021/06/10 23:43:12;;;;;;;11.23;8.40;;;15.30;99.90;;;;;;20904636;28;20033;-79
2021/06/10 23:53:25;;;;;;;13.53;9.50;;;14.70;99.90;;;;;;20888518;28;20041;-78
